METAR Data
IDs: Format: Raw Decoded Include TAF

Data at: 0022 UTC 30 May 2020

PGWT 292354Z 10008KT 5SM -RA SCT015 BKN100 26/25 A2998